createdAt,value
2019-02-04T00:01:35.950Z,8.100000
2019-02-04T00:04:06.362Z,6.200000
2019-02-04T00:06:36.745Z,6.200000
2019-02-04T00:09:07.140Z,7.300000
2019-02-04T00:11:37.532Z,7.300000
2019-02-04T00:14:07.937Z,5.100000
2019-02-04T00:16:40.960Z,5.100000
2019-02-04T00:19:11.710Z,5.900000
2019-02-04T00:21:42.151Z,5.900000
2019-02-04T00:24:12.486Z,4.100000
2019-02-04T00:26:51.328Z,4.100000
2019-02-04T00:29:22.321Z,4.900000
2019-02-04T00:31:52.604Z,4.900000
2019-02-04T00:34:23.022Z,4.700000
2019-02-04T00:36:53.288Z,4.700000
2019-02-04T00:39:23.869Z,5.000000
2019-02-04T00:41:54.245Z,5.000000
2019-02-04T00:44:24.599Z,6.400000
2019-02-04T00:46:55.005Z,6.400000
2019-02-04T00:49:25.284Z,4.900000
2019-02-04T00:51:55.728Z,4.900000
2019-02-04T00:54:26.035Z,3.300000
2019-02-04T00:56:56.540Z,3.300000
2019-02-04T00:59:26.948Z,3.100000
2019-02-04T01:01:57.309Z,3.100000
2019-02-04T01:04:27.690Z,4.800000
2019-02-04T01:06:58.305Z,4.800000
2019-02-04T01:09:28.583Z,4.200000
2019-02-04T01:11:58.976Z,4.200000
2019-02-04T01:14:29.483Z,4.200000
2019-02-04T01:17:03.396Z,4.200000
2019-02-04T01:19:34.332Z,5.000000
2019-02-04T01:22:04.724Z,5.000000
2019-02-04T01:24:35.215Z,5.300000
2019-02-04T01:27:05.621Z,5.300000
2019-02-04T01:29:36.099Z,4.800000
2019-02-04T01:32:06.583Z,4.800000
2019-02-04T01:34:37.070Z,4.200000
2019-02-04T01:37:07.438Z,4.200000
2019-02-04T01:39:37.816Z,4.100000
2019-02-04T01:42:08.205Z,4.100000
2019-02-04T01:44:38.987Z,5.500000
2019-02-04T01:47:14.753Z,5.500000
2019-02-04T01:49:45.323Z,4.200000
2019-02-04T01:52:15.778Z,4.200000
2019-02-04T01:54:46.018Z,5.300000
2019-02-04T01:57:16.709Z,5.300000
2019-02-04T01:59:47.095Z,5.400000
2019-02-04T02:02:17.398Z,5.400000
2019-02-04T02:04:47.801Z,4.000000
2019-02-04T02:07:18.090Z,4.000000
2019-02-04T02:09:48.792Z,8.700000
2019-02-04T02:12:19.222Z,4.300000
2019-02-04T02:14:49.699Z,4.300000
2019-02-04T02:17:26.371Z,6.600000
2019-02-04T02:19:57.086Z,6.600000
2019-02-04T02:22:27.678Z,10.000000
2019-02-04T02:24:58.055Z,10.000000
2019-02-04T02:27:28.361Z,5.200000
2019-02-04T02:29:58.786Z,5.200000
2019-02-04T02:32:29.221Z,8.500000
2019-02-04T02:34:59.917Z,8.500000
2019-02-04T02:37:30.329Z,8.200000
2019-02-04T02:40:00.671Z,8.200000
2019-02-04T02:42:31.060Z,6.700000
2019-02-04T02:45:01.446Z,6.700000
2019-02-04T02:47:38.395Z,8.500000
2019-02-04T02:50:09.273Z,8.500000
2019-02-04T02:52:39.557Z,5.200000
2019-02-04T02:55:10.049Z,5.200000
2019-02-04T02:57:40.527Z,8.200000
2019-02-04T03:00:10.977Z,8.200000
2019-02-04T03:02:41.301Z,8.100000
2019-02-04T03:05:11.741Z,8.100000
2019-02-04T03:07:47.128Z,7.800000
2019-02-04T03:10:17.474Z,7.800000
2019-02-04T03:12:53.266Z,5.500000
2019-02-04T03:15:23.595Z,5.500000
2019-02-04T03:17:54.077Z,7.700000
2019-02-04T03:20:24.463Z,7.700000
2019-02-04T03:22:54.955Z,6.600000
2019-02-04T03:25:25.738Z,6.600000
2019-02-04T03:27:56.150Z,7.200000
2019-02-04T03:30:26.538Z,7.200000
2019-02-04T03:32:56.940Z,8.100000
2019-02-04T03:35:32.386Z,8.100000
2019-02-04T03:38:02.982Z,8.200000
2019-02-04T03:40:33.266Z,8.200000
2019-02-04T03:43:03.546Z,9.300000
2019-02-04T03:45:33.953Z,9.300000
2019-02-04T03:48:07.359Z,8.700000
2019-02-04T03:50:39.589Z,8.700000
2019-02-04T03:53:09.962Z,7.500000
2019-02-04T03:55:40.343Z,7.500000
2019-02-04T03:58:10.746Z,8.600000
2019-02-04T04:00:41.033Z,8.600000
2019-02-04T04:03:11.598Z,9.000000
2019-02-04T04:05:41.999Z,9.000000
2019-02-04T04:08:12.554Z,8.200000
2019-02-04T04:10:42.808Z,8.200000
2019-02-04T04:13:13.094Z,7.100000
2019-02-04T04:15:43.768Z,7.100000
2019-02-04T04:18:16.033Z,9.300000
2019-02-04T04:20:46.523Z,9.300000
2019-02-04T04:23:16.850Z,7.900000
2019-02-04T04:25:47.178Z,7.900000
2019-02-04T04:28:17.565Z,9.200000
2019-02-04T04:30:47.995Z,9.200000
2019-02-04T04:33:18.327Z,8.200000
2019-02-04T04:35:48.664Z,8.200000
2019-02-04T04:38:19.034Z,9.000000
2019-02-04T04:40:49.424Z,9.000000
2019-02-04T04:43:19.839Z,8.400000
2019-02-04T04:45:50.181Z,8.400000
2019-02-04T04:48:26.764Z,7.100000
2019-02-04T04:50:57.221Z,7.100000
2019-02-04T04:53:27.573Z,9.000000
2019-02-04T04:55:57.942Z,9.000000
2019-02-04T04:58:28.404Z,10.200000
2019-02-04T05:00:58.786Z,10.200000
2019-02-04T05:03:29.260Z,8.800000
2019-02-04T05:05:59.802Z,8.800000
2019-02-04T05:08:30.410Z,8.900000
2019-02-04T05:11:00.792Z,8.900000
2019-02-04T05:13:31.306Z,7.200000
2019-02-04T05:16:01.672Z,7.200000
2019-02-04T05:18:38.319Z,9.600000
2019-02-04T05:21:09.842Z,9.600000
2019-02-04T05:23:42.327Z,7.700000
2019-02-04T05:26:12.647Z,7.700000
2019-02-04T05:28:42.996Z,9.000000
2019-02-04T05:31:13.549Z,9.000000
2019-02-04T05:33:43.894Z,10.000000
2019-02-04T05:36:14.321Z,7.600000
2019-02-04T05:38:44.659Z,7.600000
2019-02-04T05:41:14.932Z,7.100000
2019-02-04T05:43:45.282Z,7.100000
2019-02-04T05:46:15.973Z,8.300000
2019-02-04T05:48:49.571Z,8.300000
2019-02-04T05:51:20.101Z,10.400000
2019-02-04T05:53:50.583Z,10.400000
2019-02-04T05:56:21.071Z,7.600000
2019-02-04T05:58:51.729Z,7.600000
2019-02-04T06:01:22.082Z,8.300000
2019-02-04T06:03:52.463Z,8.300000
2019-02-04T06:06:22.759Z,9.500000
2019-02-04T06:08:53.211Z,9.500000
2019-02-04T06:11:23.586Z,8.800000
2019-02-04T06:13:53.959Z,8.800000
2019-02-04T06:16:24.419Z,10.900000
2019-02-04T06:19:01.026Z,10.900000
2019-02-04T06:21:31.986Z,11.000000
2019-02-04T06:24:02.721Z,11.000000
2019-02-04T06:26:33.016Z,7.000000
2019-02-04T06:29:03.491Z,7.000000
2019-02-04T06:31:33.774Z,9.800000
2019-02-04T06:34:04.142Z,9.800000
2019-02-04T06:36:34.501Z,6.900000
2019-02-04T06:39:04.779Z,6.900000
2019-02-04T06:41:35.153Z,11.300000
2019-02-04T06:44:05.629Z,11.300000
2019-02-04T06:46:36.022Z,11.700000
2019-02-04T06:49:12.372Z,11.700000
2019-02-04T06:51:43.019Z,9.900000
2019-02-04T06:54:13.308Z,9.900000
2019-02-04T06:56:43.749Z,10.000000
2019-02-04T06:59:14.112Z,10.000000
2019-02-04T07:01:44.492Z,9.100000
2019-02-04T07:04:14.771Z,9.100000
2019-02-04T07:06:45.040Z,11.100000
2019-02-04T07:09:15.325Z,11.100000
2019-02-04T07:11:45.803Z,9.500000
2019-02-04T07:14:16.249Z,9.500000
2019-02-04T07:16:47.017Z,10.300000
2019-02-04T07:19:24.339Z,10.300000
2019-02-04T07:21:55.093Z,11.200000
2019-02-04T07:24:25.566Z,11.200000
2019-02-04T07:26:55.837Z,9.900000
2019-02-04T07:29:26.538Z,9.900000
2019-02-04T07:31:57.023Z,7.800000
2019-02-04T07:34:27.404Z,7.800000
2019-02-04T07:36:57.783Z,9.600000
2019-02-04T07:39:28.153Z,9.600000
2019-02-04T07:41:58.719Z,10.800000
2019-02-04T07:44:29.220Z,10.800000
2019-02-04T07:46:59.722Z,9.800000
2019-02-04T07:49:35.227Z,9.800000
2019-02-04T07:52:05.934Z,10.400000
2019-02-04T07:54:36.231Z,10.400000
2019-02-04T07:57:06.637Z,7.700000
2019-02-04T07:59:36.987Z,7.700000
2019-02-04T08:02:07.574Z,7.600000
2019-02-04T08:04:37.983Z,7.600000
2019-02-04T08:07:08.270Z,12.800000
2019-02-04T08:09:38.771Z,12.800000
2019-02-04T08:12:09.065Z,8.800000
2019-02-04T08:14:39.329Z,8.800000
2019-02-04T08:17:09.831Z,13.800000
2019-02-04T08:19:47.365Z,13.800000
2019-02-04T08:22:17.877Z,8.100000
2019-02-04T08:24:48.320Z,8.100000
2019-02-04T08:27:18.777Z,8.200000
2019-02-04T08:29:49.266Z,8.200000
2019-02-04T08:32:19.682Z,11.100000
2019-02-04T08:34:50.262Z,11.100000
2019-02-04T08:37:20.560Z,7.600000
2019-02-04T08:39:50.970Z,7.600000
2019-02-04T08:42:21.280Z,5.600000
2019-02-04T08:44:51.758Z,5.600000
2019-02-04T08:47:23.098Z,7.400000
2019-02-04T08:49:58.337Z,7.400000
2019-02-04T08:52:29.035Z,7.100000
2019-02-04T08:54:59.473Z,7.100000
2019-02-04T08:57:29.829Z,8.000000
2019-02-04T09:00:00.448Z,8.000000
2019-02-04T09:02:31.027Z,8.400000
2019-02-04T09:05:01.414Z,8.400000
2019-02-04T09:07:31.816Z,9.900000
2019-02-04T09:10:02.206Z,9.900000
2019-02-04T09:12:32.519Z,7.700000
2019-02-04T09:15:02.998Z,7.400000
2019-02-04T09:17:33.721Z,7.400000
2019-02-04T09:20:10.143Z,7.700000
2019-02-04T09:22:40.773Z,7.700000
2019-02-04T09:25:11.282Z,6.200000
2019-02-04T09:27:41.615Z,6.200000
2019-02-04T09:30:12.225Z,7.000000
2019-02-04T09:32:42.590Z,7.000000
2019-02-04T09:35:13.038Z,6.200000
2019-02-04T09:37:43.350Z,6.200000
2019-02-04T09:40:13.676Z,6.400000
2019-02-04T09:42:43.988Z,6.400000
2019-02-04T09:45:14.297Z,7.600000
2019-02-04T09:47:44.612Z,7.600000
2019-02-04T09:50:21.763Z,8.000000
2019-02-04T09:52:52.507Z,8.000000
2019-02-04T09:55:22.999Z,5.200000
2019-02-04T09:57:53.487Z,5.200000
2019-02-04T10:00:23.791Z,6.100000
2019-02-04T10:02:54.222Z,6.100000
2019-02-04T10:05:24.599Z,6.600000
2019-02-04T10:07:55.016Z,6.600000
2019-02-04T10:10:25.699Z,6.200000
2019-02-04T10:12:56.004Z,6.200000
2019-02-04T10:15:26.428Z,5.200000
2019-02-04T10:17:56.834Z,5.200000
2019-02-04T10:20:33.981Z,4.300000
2019-02-04T10:23:05.175Z,4.300000
2019-02-04T10:25:35.585Z,5.200000
2019-02-04T10:28:06.078Z,5.200000
2019-02-04T10:30:36.561Z,6.700000
2019-02-04T10:33:06.991Z,6.700000
2019-02-04T10:35:37.318Z,4.900000
2019-02-04T10:38:07.738Z,4.900000
2019-02-04T10:40:38.062Z,6.700000
2019-02-04T10:43:08.436Z,6.700000
2019-02-04T10:45:38.892Z,9.000000
2019-02-04T10:48:09.680Z,9.000000
2019-02-04T10:50:46.401Z,6.000000
2019-02-04T10:53:17.216Z,6.000000
2019-02-04T10:55:47.653Z,7.200000
2019-02-04T10:58:18.072Z,7.200000
2019-02-04T11:00:48.795Z,6.200000
2019-02-04T11:03:20.077Z,6.200000
2019-02-04T11:05:50.695Z,6.600000
2019-02-04T11:08:21.119Z,6.600000
2019-02-04T11:10:51.525Z,6.800000
2019-02-04T11:13:23.001Z,6.800000
2019-02-04T11:15:53.349Z,8.200000
2019-02-04T11:18:23.777Z,8.200000
2019-02-04T11:20:59.101Z,4.300000
2019-02-04T11:23:34.580Z,4.300000
2019-02-04T11:26:05.081Z,5.800000
2019-02-04T11:28:40.526Z,5.800000
2019-02-04T11:31:10.968Z,5.000000
2019-02-04T11:33:41.345Z,5.000000
2019-02-04T11:36:11.702Z,5.600000
2019-02-04T11:38:42.097Z,5.600000
2019-02-04T11:41:12.528Z,6.200000
2019-02-04T11:43:42.911Z,6.200000
2019-02-04T11:46:13.333Z,5.000000
2019-02-04T11:48:43.875Z,5.000000
2019-02-04T11:51:14.552Z,5.100000
2019-02-04T11:53:44.853Z,5.100000
2019-02-04T11:56:15.092Z,4.200000
2019-02-04T11:58:45.683Z,4.200000
2019-02-04T12:01:16.264Z,6.900000
2019-02-04T12:03:46.633Z,6.900000
2019-02-04T12:06:17.633Z,5.000000
2019-02-04T12:08:48.098Z,5.000000
2019-02-04T12:11:18.484Z,4.500000
2019-02-04T12:13:49.028Z,4.500000
2019-02-04T12:16:19.429Z,4.700000
2019-02-04T12:18:50.050Z,4.700000
2019-02-04T12:21:21.761Z,8.000000
2019-02-04T12:23:52.274Z,8.000000
2019-02-04T12:26:22.718Z,6.300000
2019-02-04T12:28:53.223Z,6.300000
2019-02-04T12:31:23.946Z,6.300000
2019-02-04T12:33:54.452Z,6.300000
2019-02-04T12:36:24.903Z,12.100000
2019-02-04T12:38:55.226Z,12.100000
2019-02-04T12:41:25.541Z,4.400000
2019-02-04T12:43:55.871Z,5.700000
2019-02-04T12:46:26.194Z,5.700000
2019-02-04T12:48:56.503Z,7.200000
2019-02-04T12:51:33.811Z,7.200000
2019-02-04T12:54:04.399Z,6.400000
2019-02-04T12:56:34.767Z,6.400000
2019-02-04T12:59:05.089Z,5.600000
2019-02-04T13:01:35.491Z,5.600000
2019-02-04T13:04:06.011Z,6.400000
2019-02-04T13:06:36.352Z,6.400000
2019-02-04T13:09:06.721Z,6.000000
2019-02-04T13:11:37.038Z,6.000000
2019-02-04T13:14:07.437Z,7.100000
2019-02-04T13:16:37.784Z,7.100000
2019-02-04T13:19:08.222Z,6.800000
2019-02-04T13:21:45.615Z,6.800000
2019-02-04T13:24:16.026Z,7.800000
2019-02-04T13:26:46.438Z,7.800000
2019-02-04T13:29:16.959Z,8.100000
2019-02-04T13:31:47.293Z,8.100000
2019-02-04T13:34:17.749Z,4.800000
2019-02-04T13:36:48.373Z,4.800000
2019-02-04T13:39:18.767Z,7.900000
2019-02-04T13:41:49.309Z,7.900000
2019-02-04T13:44:19.531Z,10.900000
2019-02-04T13:46:50.052Z,10.900000
2019-02-04T13:49:20.841Z,7.600000
2019-02-04T13:51:57.669Z,7.600000
2019-02-04T13:54:28.315Z,8.000000
2019-02-04T13:56:58.766Z,8.000000
2019-02-04T13:59:29.287Z,8.200000
2019-02-04T14:02:00.717Z,8.200000
2019-02-04T14:04:31.150Z,8.000000
2019-02-04T14:07:02.159Z,8.000000
2019-02-04T14:09:32.706Z,9.100000
2019-02-04T14:12:03.094Z,9.100000
2019-02-04T14:14:33.757Z,6.700000
2019-02-04T14:17:04.105Z,6.700000
2019-02-04T14:19:34.695Z,4.600000
2019-02-04T14:22:09.391Z,4.600000
2019-02-04T14:24:40.064Z,7.600000
2019-02-04T14:27:10.795Z,7.600000
2019-02-04T14:29:41.170Z,8.700000
2019-02-04T14:32:11.605Z,8.700000
2019-02-04T14:34:41.995Z,7.800000
2019-02-04T14:37:12.377Z,7.800000
2019-02-04T14:39:43.048Z,8.200000
2019-02-04T14:42:13.527Z,8.200000
2019-02-04T14:44:43.901Z,7.200000
2019-02-04T14:47:14.333Z,7.200000
2019-02-04T14:49:44.666Z,7.900000
2019-02-04T14:52:21.346Z,7.900000
2019-02-04T14:54:52.115Z,3.700000
2019-02-04T14:57:22.636Z,3.700000
2019-02-04T14:59:52.899Z,8.100000
2019-02-04T15:02:23.289Z,8.100000
2019-02-04T15:04:53.616Z,7.800000
2019-02-04T15:07:24.089Z,7.800000
2019-02-04T15:09:56.442Z,11.000000
2019-02-04T15:12:26.785Z,11.000000
2019-02-04T15:14:57.099Z,6.300000
2019-02-04T15:17:27.539Z,6.300000
2019-02-04T15:19:57.962Z,12.000000
2019-02-04T15:22:33.496Z,12.000000
2019-02-04T15:25:04.062Z,7.500000
2019-02-04T15:27:34.576Z,7.500000
2019-02-04T15:30:05.028Z,3.500000
2019-02-04T15:32:35.556Z,3.500000
2019-02-04T15:35:05.839Z,4.400000
2019-02-04T15:37:36.175Z,4.400000
2019-02-04T15:40:06.538Z,9.000000
2019-02-04T15:42:37.141Z,9.000000
2019-02-04T15:45:07.575Z,9.300000
2019-02-04T15:47:37.990Z,9.300000
2019-02-04T15:50:08.414Z,8.100000
2019-02-04T15:52:45.504Z,8.100000
2019-02-04T15:55:16.229Z,5.900000
2019-02-04T15:57:46.562Z,5.900000
2019-02-04T16:00:17.034Z,9.200000
2019-02-04T16:02:47.592Z,9.200000
2019-02-04T16:05:17.895Z,6.800000
2019-02-04T16:07:48.350Z,6.800000
2019-02-04T16:10:18.693Z,9.300000
2019-02-04T16:12:49.029Z,9.300000
2019-02-04T16:15:19.452Z,8.100000
2019-02-04T16:17:49.919Z,9.000000
2019-02-04T16:20:20.651Z,9.000000
2019-02-04T16:22:58.408Z,7.300000
2019-02-04T16:25:29.319Z,7.300000
2019-02-04T16:27:59.640Z,16.400000
2019-02-04T16:30:29.899Z,16.400000
2019-02-04T16:33:00.314Z,5.900000
2019-02-04T16:35:30.561Z,5.900000
2019-02-04T16:38:00.974Z,9.500000
2019-02-04T16:40:31.341Z,9.500000
2019-02-04T16:43:01.640Z,6.200000
2019-02-04T16:45:32.422Z,6.200000
2019-02-04T16:48:03.044Z,8.300000
2019-02-04T16:50:33.523Z,8.300000
2019-02-04T16:53:10.632Z,6.800000
2019-02-04T16:55:41.403Z,6.800000
2019-02-04T16:58:12.116Z,5.800000
2019-02-04T17:00:42.560Z,5.800000
2019-02-04T17:03:13.051Z,5.100000
2019-02-04T17:05:43.276Z,5.100000
2019-02-04T17:08:13.701Z,4.200000
2019-02-04T17:10:44.234Z,4.200000
2019-02-04T17:13:14.510Z,4.900000
2019-02-04T17:15:45.029Z,4.900000
2019-02-04T17:18:15.267Z,4.300000
2019-02-04T17:20:46.711Z,4.300000
2019-02-04T17:23:22.761Z,5.200000
2019-02-04T17:25:53.202Z,5.200000
2019-02-04T17:28:24.013Z,6.800000
2019-02-04T17:30:54.267Z,6.800000
2019-02-04T17:33:24.691Z,6.000000
2019-02-04T17:35:55.028Z,6.000000
2019-02-04T17:38:25.550Z,5.600000
2019-02-04T17:40:55.968Z,5.600000
2019-02-04T17:43:26.263Z,7.200000
2019-02-04T17:45:56.694Z,7.200000
2019-02-04T17:48:27.098Z,6.300000
2019-02-04T17:50:57.507Z,6.300000
2019-02-04T17:53:34.271Z,5.100000
2019-02-04T17:56:04.933Z,5.100000
2019-02-04T17:58:35.354Z,8.100000
2019-02-04T18:01:05.779Z,8.100000
2019-02-04T18:03:36.281Z,5.600000
2019-02-04T18:06:06.533Z,5.600000
2019-02-04T18:08:36.924Z,5.600000
2019-02-04T18:11:07.365Z,5.600000
2019-02-04T18:13:37.853Z,6.200000
2019-02-04T18:16:13.260Z,6.200000
2019-02-04T18:18:43.657Z,6.000000
2019-02-04T18:21:15.056Z,6.000000
2019-02-04T18:23:46.334Z,5.300000
2019-02-04T18:26:16.786Z,5.300000
2019-02-04T18:28:49.426Z,5.300000
2019-02-04T18:31:19.739Z,5.300000
2019-02-04T18:33:50.333Z,4.400000
2019-02-04T18:36:20.892Z,4.400000
2019-02-04T18:38:51.333Z,6.400000
2019-02-04T18:41:21.705Z,6.400000
2019-02-04T18:43:52.128Z,5.500000
2019-02-04T18:46:22.435Z,5.500000
2019-02-04T18:48:52.833Z,5.300000
2019-02-04T18:51:23.340Z,5.300000
2019-02-04T18:53:57.774Z,7.600000
2019-02-04T18:56:28.438Z,7.600000
2019-02-04T18:58:58.753Z,4.800000
2019-02-04T19:01:28.975Z,4.800000
2019-02-04T19:03:59.293Z,6.800000
2019-02-04T19:06:30.178Z,6.800000
2019-02-04T19:09:00.509Z,3.800000
2019-02-04T19:11:30.948Z,3.800000
2019-02-04T19:14:01.236Z,8.800000
2019-02-04T19:16:31.620Z,8.800000
2019-02-04T19:19:01.936Z,7.500000
2019-02-04T19:21:32.254Z,7.500000
2019-02-04T19:24:09.629Z,7.400000
2019-02-04T19:26:40.257Z,7.400000
2019-02-04T19:29:15.787Z,7.900000
2019-02-04T19:31:51.529Z,7.900000
2019-02-04T19:34:21.827Z,8.700000
2019-02-04T19:36:52.185Z,7.800000
2019-02-04T19:39:22.509Z,7.800000
2019-02-04T19:41:52.926Z,7.900000
2019-02-04T19:44:23.550Z,7.900000
2019-02-04T19:46:53.782Z,7.400000
2019-02-04T19:49:24.266Z,7.400000
2019-02-04T19:51:55.268Z,6.000000
2019-02-04T19:54:30.773Z,6.000000
2019-02-04T19:57:01.322Z,7.200000
2019-02-04T19:59:31.906Z,7.200000
2019-02-04T20:02:03.388Z,9.300000
2019-02-04T20:04:33.692Z,9.300000
2019-02-04T20:07:04.130Z,9.200000
2019-02-04T20:09:34.543Z,9.200000
2019-02-04T20:12:04.970Z,7.800000
2019-02-04T20:14:35.268Z,7.800000
2019-02-04T20:17:05.646Z,9.900000
2019-02-04T20:19:36.012Z,9.900000
2019-02-04T20:22:06.324Z,10.200000
2019-02-04T20:24:37.044Z,10.200000
2019-02-04T20:27:07.453Z,13.000000
2019-02-04T20:29:37.776Z,13.000000
2019-02-04T20:32:08.182Z,11.800000
2019-02-04T20:34:38.476Z,11.800000
2019-02-04T20:37:08.815Z,7.900000
2019-02-04T20:39:39.413Z,7.900000
2019-02-04T20:42:10.037Z,13.400000
2019-02-04T20:44:40.379Z,13.400000
2019-02-04T20:47:10.793Z,10.000000
2019-02-04T20:49:41.211Z,10.000000
2019-02-04T20:52:11.517Z,10.400000
2019-02-04T20:54:45.049Z,10.400000
2019-02-04T20:57:15.908Z,10.700000
2019-02-04T20:59:46.428Z,10.700000
2019-02-04T21:02:16.846Z,12.700000
2019-02-04T21:04:47.168Z,12.700000
2019-02-04T21:07:17.492Z,11.200000
2019-02-04T21:09:47.771Z,11.200000
2019-02-04T21:12:18.180Z,6.600000
2019-02-04T21:14:48.590Z,6.600000
2019-02-04T21:17:19.106Z,12.400000
2019-02-04T21:19:49.724Z,12.400000
2019-02-04T21:22:20.141Z,11.000000
2019-02-04T21:24:56.447Z,11.000000
2019-02-04T21:27:27.136Z,9.900000
2019-02-04T21:30:02.615Z,9.900000
2019-02-04T21:32:32.966Z,10.200000
2019-02-04T21:35:03.294Z,10.200000
2019-02-04T21:37:33.886Z,11.000000
2019-02-04T21:40:04.276Z,11.000000
2019-02-04T21:42:34.497Z,12.900000
2019-02-04T21:45:05.332Z,12.900000
2019-02-04T21:47:35.657Z,10.400000
2019-02-04T21:50:05.980Z,10.400000
2019-02-04T21:52:36.305Z,10.900000
2019-02-04T21:55:08.616Z,10.900000
2019-02-04T21:57:39.341Z,13.100000
2019-02-04T22:00:09.798Z,13.100000
2019-02-04T22:02:40.190Z,9.500000
2019-02-04T22:05:10.426Z,9.500000
2019-02-04T22:07:40.753Z,11.900000
2019-02-04T22:10:11.210Z,11.900000
2019-02-04T22:12:41.726Z,15.000000
2019-02-04T22:15:12.182Z,15.000000
2019-02-04T22:17:42.555Z,16.600000
2019-02-04T22:20:13.089Z,16.600000
2019-02-04T22:22:43.485Z,11.900000
2019-02-04T22:25:19.584Z,11.900000
2019-02-04T22:27:50.297Z,15.300000
2019-02-04T22:30:20.722Z,15.300000
2019-02-04T22:32:51.033Z,18.400000
2019-02-04T22:35:21.437Z,18.400000
2019-02-04T22:37:51.748Z,11.500000
2019-02-04T22:40:22.469Z,11.500000
2019-02-04T22:42:52.789Z,15.700000
2019-02-04T22:45:23.127Z,15.700000
2019-02-04T22:47:53.412Z,15.200000
2019-02-04T22:50:23.848Z,15.200000
2019-02-04T22:52:54.185Z,17.500000
2019-02-04T22:55:32.076Z,17.500000
2019-02-04T22:58:02.776Z,16.200000
2019-02-04T23:00:33.321Z,16.200000
2019-02-04T23:03:03.732Z,22.200000
2019-02-04T23:05:34.533Z,22.200000
2019-02-04T23:08:04.946Z,16.000000
2019-02-04T23:10:35.268Z,16.000000
2019-02-04T23:13:05.486Z,17.200000
2019-02-04T23:15:35.990Z,17.200000
2019-02-04T23:18:06.313Z,16.600000
2019-02-04T23:20:41.726Z,16.600000
2019-02-04T23:23:14.208Z,19.400000
2019-02-04T23:25:44.516Z,20.100000
2019-02-04T23:28:14.821Z,20.100000
2019-02-04T23:30:45.539Z,18.700000
2019-02-04T23:33:15.847Z,18.700000
2019-02-04T23:35:46.247Z,17.500000
2019-02-04T23:38:16.562Z,17.500000
2019-02-04T23:40:46.874Z,18.300000
2019-02-04T23:43:17.317Z,18.300000
2019-02-04T23:45:47.677Z,20.000000
2019-02-04T23:48:17.980Z,20.000000
2019-02-04T23:50:48.313Z,20.300000
2019-02-04T23:53:18.724Z,20.300000
2019-02-04T23:55:54.684Z,23.800000
2019-02-04T23:58:25.224Z,23.800000
